Time;durP1;ratioP1;P1;durP2;ratioP2;P2;SDS_P1;SDS_P2;PMS_P1;PMS_P2;Temp;Humidity;BMP_temperature;BMP_pressure;BME280_temperature;BME280_humidity;BME280_pressure;Samples;Min_cycle;Max_cycle;Signal;HPM_P1;HPM_P2
2021/05/11 00:00:09;;;;;;;3.60;2.30;;;;;;;16.03;47.37;101374.72;143734;570;47020;-77
2021/05/11 00:02:36;;;;;;;5.12;2.40;;;;;;;16.03;47.23;101366.78;143738;626;46010;-78
2021/05/11 00:05:05;;;;;;;6.30;2.40;;;;;;;16.01;47.38;101373.91;143739;565;46012;-78
2021/05/11 00:07:32;;;;;;;5.95;2.40;;;;;;;15.97;47.40;101371.47;143741;701;46010;-79
2021/05/11 00:10:00;;;;;;;5.20;2.40;;;;;;;15.97;47.28;101369.66;143739;581;46013;-80
2021/05/11 00:12:27;;;;;;;7.80;2.45;;;;;;;15.93;47.22;101367.22;143738;626;46020;-80
2021/05/11 00:14:54;;;;;;;7.95;2.60;;;;;;;15.92;47.50;101368.13;143737;569;46010;-80
2021/05/11 00:17:21;;;;;;;4.47;2.25;;;;;;;15.90;47.50;101371.69;143741;645;47013;-80
2021/05/11 00:19:48;;;;;;;4.80;2.35;;;;;;;15.95;47.23;101370.66;143739;610;46016;-80
2021/05/11 00:22:15;;;;;;;5.95;2.33;;;;;;;15.89;47.16;101359.37;143740;572;46010;-79
2021/05/11 00:24:42;;;;;;;8.30;2.65;;;;;;;15.88;47.66;101370.03;143740;583;46016;-81
2021/05/11 00:27:09;;;;;;;6.43;2.47;;;;;;;15.88;47.46;101365.63;143740;563;48008;-85
2021/05/11 00:29:36;;;;;;;5.50;2.60;;;;;;;15.82;47.88;101371.12;143739;597;46012;-82
2021/05/11 00:32:04;;;;;;;3.90;2.40;;;;;;;15.78;47.77;101361.56;143740;571;46012;-81
2021/05/11 00:34:31;;;;;;;6.10;2.40;;;;;;;15.82;47.47;101357.06;143739;666;46018;-82
2021/05/11 00:36:59;;;;;;;3.80;2.20;;;;;;;15.74;47.27;101366.09;143739;563;47008;-82
2021/05/11 00:39:35;;;;;;;8.23;2.42;;;;;;;15.73;47.61;101363.53;143740;678;46013;-82
2021/05/11 00:42:02;;;;;;;4.47;2.08;;;;;;;15.67;47.46;101354.03;143740;643;46020;-82
2021/05/11 00:44:29;;;;;;;5.70;2.42;;;;;;;15.69;47.60;101368.09;143738;650;46018;-81
2021/05/11 00:46:59;;;;;;;4.00;2.30;;;;;;;15.67;47.57;101369.91;143742;564;46010;-81
2021/05/11 00:49:31;;;;;;;6.60;2.45;;;;;;;15.70;47.87;101367.16;143740;648;46012;-79
2021/05/11 00:51:59;;;;;;;4.32;2.40;;;;;;;15.63;48.01;101365.66;143741;658;46020;-80
2021/05/11 00:54:28;;;;;;;4.80;2.40;;;;;;;15.52;48.33;101373.16;143741;583;46010;-81
2021/05/11 00:56:56;;;;;;;5.03;2.25;;;;;;;15.43;48.30;101369.06;143741;725;46010;-79
2021/05/11 00:59:26;;;;;;;6.62;2.50;;;;;;;15.35;49.08;101364.09;143736;628;46016;-83
2021/05/11 01:01:54;;;;;;;4.90;2.20;;;;;;;15.45;48.22;101369.88;143738;565;46010;-83
2021/05/11 01:04:23;;;;;;;5.93;2.50;;;;;;;15.39;48.21;101370.09;143736;593;46018;-83
2021/05/11 01:06:51;;;;;;;4.07;2.17;;;;;;;15.35;48.27;101368.50;143740;632;47008;-73
2021/05/11 01:09:18;;;;;;;4.72;2.33;;;;;;;15.39;48.01;101376.28;143741;572;46012;-78
2021/05/11 01:11:46;;;;;;;4.10;2.50;;;;;;;15.30;48.47;101367.84;143741;569;46012;-80
2021/05/11 01:14:13;;;;;;;4.22;2.00;;;;;;;15.21;48.47;101371.66;143738;591;47010;-79
2021/05/11 01:16:41;;;;;;;5.18;2.45;;;;;;;15.28;48.84;101377.59;143740;606;46023;-73
2021/05/11 01:19:21;;;;;;;5.70;2.30;;;;;;;15.21;48.89;101371.66;143740;709;46012;-72
2021/05/11 01:27:43;;;;;;;3.95;2.50;;;;;;;15.15;49.33;101364.81;143738;701;46020;-78
2021/05/11 01:44:53;;;;;;;4.35;2.25;;;;;;;15.07;49.23;101358.94;143741;564;46008;-77
2021/05/11 01:47:33;;;;;;;5.85;2.40;;;;;;;15.04;49.03;101359.06;143738;586;47008;-77
2021/05/11 01:50:04;;;;;;;4.40;2.00;;;;;;;14.99;49.09;101353.94;143740;602;46024;-77
2021/05/11 01:52:46;;;;;;;6.72;2.20;;;;;;;14.98;49.21;101354.88;143735;574;47010;-74
2021/05/11 01:58:38;;;;;;;6.45;2.20;;;;;;;14.96;49.07;101354.06;143739;677;46008;-83
2021/05/11 02:23:00;;;;;;;7.70;2.47;;;;;;;14.96;49.58;101332.91;143743;583;46008;-76
2021/05/11 02:29:25;;;;;;;5.85;2.15;;;;;;;14.80;49.20;101335.22;143742;564;46009;-77
2021/05/11 02:31:52;;;;;;;5.57;2.30;;;;;;;14.79;49.12;101330.00;143742;659;47010;-78
2021/05/11 02:34:19;;;;;;;5.55;2.10;;;;;;;14.78;49.01;101330.94;143739;577;47008;-79
2021/05/11 02:36:46;;;;;;;6.30;1.92;;;;;;;14.77;48.51;101327.41;143739;564;47010;-79
2021/05/11 02:39:13;;;;;;;5.28;1.90;;;;;;;14.76;48.63;101324.81;143742;652;46009;-79
2021/05/11 02:41:43;;;;;;;6.45;2.15;;;;;;;14.74;48.76;101318.75;143740;640;46008;-80
2021/05/11 02:44:10;;;;;;;6.95;2.30;;;;;;;14.72;48.50;101310.84;143740;617;47010;-80
2021/05/11 02:46:39;;;;;;;7.35;2.03;;;;;;;14.72;48.69;101316.13;143739;574;46019;-80
2021/05/11 02:49:07;;;;;;;8.82;3.05;;;;;;;14.74;48.77;101313.47;143739;630;46008;-81
2021/05/11 02:51:34;;;;;;;5.72;2.78;;;;;;;14.79;48.90;101309.72;143741;589;46017;-79
2021/05/11 02:54:01;;;;;;;4.32;2.22;;;;;;;14.85;48.80;101308.63;143743;576;46008;-75
2021/05/11 02:56:28;;;;;;;5.78;2.20;;;;;;;14.85;48.77;101309.47;143738;595;46030;-76
2021/05/11 02:58:55;;;;;;;6.43;2.28;;;;;;;14.89;48.40;101313.75;143740;569;46020;-77
2021/05/11 03:01:23;;;;;;;8.15;2.45;;;;;;;14.88;48.74;101305.88;143738;598;46019;-77
2021/05/11 03:03:50;;;;;;;6.95;2.17;;;;;;;14.91;48.41;101307.53;143742;590;46020;-76
2021/05/11 03:06:17;;;;;;;5.05;2.08;;;;;;;14.90;48.73;101309.34;143741;574;46010;-77
2021/05/11 03:08:44;;;;;;;5.55;2.20;;;;;;;14.85;48.85;101303.34;143740;655;46008;-76
2021/05/11 03:11:12;;;;;;;6.18;2.25;;;;;;;14.71;49.34;101302.06;143742;588;46018;-76
2021/05/11 03:13:39;;;;;;;5.80;2.50;;;;;;;14.75;49.38;101301.94;143741;580;47010;-75
2021/05/11 03:16:06;;;;;;;4.97;2.33;;;;;;;14.72;48.94;101301.16;143738;672;47010;-75
2021/05/11 03:18:33;;;;;;;4.95;2.00;;;;;;;14.77;48.97;101308.06;143742;583;46008;-75
2021/05/11 03:21:00;;;;;;;6.03;2.12;;;;;;;14.77;49.32;101305.41;143739;587;46008;-76
2021/05/11 03:23:27;;;;;;;5.60;2.25;;;;;;;14.77;48.86;101318.63;143742;593;46021;-76
2021/05/11 03:25:55;;;;;;;8.90;2.58;;;;;;;14.72;49.11;101310.84;143739;593;47018;-76
2021/05/11 03:28:22;;;;;;;8.65;2.60;;;;;;;14.63;49.25;101296.19;143741;717;46008;-80
2021/05/11 03:30:49;;;;;;;6.95;2.45;;;;;;;14.66;48.85;101305.78;143741;715;46008;-79
2021/05/11 03:33:16;;;;;;;7.82;2.20;;;;;;;14.63;49.28;101309.41;143743;569;47006;-76
2021/05/11 03:35:43;;;;;;;7.97;2.58;;;;;;;14.65;49.20;101319.91;143740;573;46016;-78
2021/05/11 03:38:10;;;;;;;7.18;2.30;;;;;;;14.55;49.31;101317.56;143740;589;46021;-78
2021/05/11 03:40:37;;;;;;;7.37;2.55;;;;;;;14.59;49.29;101313.03;143741;608;46018;-78
2021/05/11 03:43:09;;;;;;;7.85;2.33;;;;;;;14.50;49.45;101316.88;143741;618;47010;-78
2021/05/11 03:45:41;;;;;;;10.02;2.60;;;;;;;14.48;49.52;101328.41;143737;565;46018;-78
2021/05/11 03:48:09;;;;;;;7.87;2.40;;;;;;;14.52;49.32;101325.59;143740;595;47008;-78
2021/05/11 03:50:36;;;;;;;13.10;3.08;;;;;;;14.49;49.97;101324.81;143740;627;47008;-76
2021/05/11 03:53:03;;;;;;;8.95;3.03;;;;;;;14.53;49.63;101329.13;143742;570;47010;-76
2021/05/11 03:55:30;;;;;;;5.65;2.30;;;;;;;14.51;49.47;101321.22;143741;594;46010;-78
2021/05/11 03:57:57;;;;;;;9.35;2.37;;;;;;;14.49;49.44;101322.19;143741;573;46020;-80
2021/05/11 04:00:24;;;;;;;4.12;1.98;;;;;;;14.51;49.56;101333.59;143740;622;46018;-79
2021/05/11 04:02:51;;;;;;;7.20;2.40;;;;;;;14.47;49.66;101329.31;143743;669;46020;-80
2021/05/11 04:05:20;;;;;;;11.90;2.30;;;;;;;14.48;49.82;101331.91;143739;620;46028;-80
2021/05/11 04:07:53;;;;;;;10.18;2.40;;;;;;;14.58;49.71;101339.53;143742;661;46008;-83
2021/05/11 04:10:32;;;;;;;5.12;2.15;;;;;;;14.63;49.52;101332.34;143741;565;46008;-82
2021/05/11 04:13:24;;;;;;;5.22;2.15;;;;;;;14.68;49.43;101335.66;143742;572;46008;-80
2021/05/11 04:16:14;;;;;;;3.87;2.12;;;;;;;14.73;49.66;101333.72;143740;677;46016;-74
2021/05/11 04:18:41;;;;;;;5.07;2.20;;;;;;;14.81;49.28;101336.09;143738;594;46020;-76
2021/05/11 04:21:09;;;;;;;13.43;2.47;;;;;;;14.91;49.08;101340.12;143740;564;46021;-78
2021/05/11 04:23:36;;;;;;;7.97;2.45;;;;;;;14.97;49.05;101334.63;143741;571;46021;-78
2021/05/11 04:26:03;;;;;;;6.78;2.10;;;;;;;15.04;49.22;101337.91;143738;589;46018;-79
2021/05/11 04:28:30;;;;;;;9.32;2.72;;;;;;;15.09;49.50;101340.38;143740;631;46020;-79
2021/05/11 04:30:58;;;;;;;10.80;2.97;;;;;;;15.18;49.07;101348.81;143741;668;46019;-79
2021/05/11 04:33:26;;;;;;;9.50;2.45;;;;;;;15.31;49.40;101346.59;143742;629;46008;-81
2021/05/11 04:35:53;;;;;;;11.88;4.70;;;;;;;15.47;48.91;101357.44;143738;674;46017;-80
2021/05/11 04:38:22;;;;;;;14.98;4.90;;;;;;;15.60;49.54;101349.91;143739;564;46032;-80
2021/05/11 04:40:49;;;;;;;9.32;4.97;;;;;;;15.79;49.09;101351.81;143741;642;46018;-82
2021/05/11 04:43:18;;;;;;;13.27;5.45;;;;;;;15.95;49.12;101354.75;143740;571;47010;-83
2021/05/11 04:45:46;;;;;;;16.70;5.55;;;;;;;16.11;48.74;101355.84;143739;644;46017;-80
2021/05/11 04:48:14;;;;;;;14.43;5.47;;;;;;;16.29;48.91;101353.38;143741;626;46008;-80
2021/05/11 04:50:41;;;;;;;11.93;4.55;;;;;;;16.45;48.78;101353.59;143738;672;46018;-79
2021/05/11 04:53:08;;;;;;;12.95;4.43;;;;;;;16.63;48.36;101360.75;143742;663;46008;-79
2021/05/11 04:55:35;;;;;;;7.18;3.17;;;;;;;16.75;48.31;101354.91;143737;571;47016;-80
2021/05/11 04:58:02;;;;;;;9.07;3.95;;;;;;;16.94;48.23;101351.50;143741;602;46028;-80
2021/05/11 05:00:30;;;;;;;8.57;3.50;;;;;;;17.09;47.82;101358.75;143741;620;46008;-80
2021/05/11 05:03:00;;;;;;;8.68;3.28;;;;;;;17.25;47.95;101356.28;143741;566;46008;-80
2021/05/11 05:05:27;;;;;;;10.05;3.20;;;;;;;17.34;47.65;101352.31;143738;569;46016;-78
2021/05/11 05:07:54;;;;;;;9.45;3.03;;;;;;;17.47;47.20;101351.75;143740;670;46021;-79
2021/05/11 05:10:22;;;;;;;9.43;3.25;;;;;;;17.59;47.25;101348.53;143741;624;46018;-78
2021/05/11 05:12:49;;;;;;;8.82;3.10;;;;;;;17.74;47.28;101349.59;143740;657;47008;-81
2021/05/11 05:15:16;;;;;;;5.87;2.80;;;;;;;17.84;46.92;101352.69;143740;638;46025;-80
2021/05/11 05:17:44;;;;;;;9.95;2.92;;;;;;;18.03;46.89;101345.56;143742;611;45020;-81
2021/05/11 05:20:12;;;;;;;10.82;2.70;;;;;;;18.15;46.83;101340.56;143739;580;46018;-81
2021/05/11 05:22:41;;;;;;;6.97;2.67;;;;;;;18.27;46.47;101345.25;143740;570;46026;-81
2021/05/11 05:25:19;;;;;;;11.82;2.83;;;;;;;18.43;46.51;101343.53;143740;657;46016;-81
2021/05/11 05:28:00;;;;;;;8.90;3.08;;;;;;;18.54;46.60;101350.97;143740;576;46021;-81
2021/05/11 05:30:27;;;;;;;9.30;3.03;;;;;;;18.69;46.54;101349.31;143740;584;46019;-81
2021/05/11 05:32:59;;;;;;;13.00;3.60;;;;;;;18.83;46.71;101342.44;143739;569;47020;-79
2021/05/11 05:35:26;;;;;;;11.60;3.50;;;;;;;18.94;46.66;101346.28;143737;569;46906;-81
2021/05/11 05:37:53;;;;;;;19.02;3.80;;;;;;;19.05;46.23;101355.47;143741;598;46919;-80
2021/05/11 05:40:21;;;;;;;19.77;4.07;;;;;;;19.19;46.22;101358.28;143741;573;46018;-80
2021/05/11 05:42:48;;;;;;;8.75;3.22;;;;;;;19.13;46.38;101358.59;143739;607;47020;-84
2021/05/11 05:45:16;;;;;;;11.35;3.30;;;;;;;19.20;45.97;101356.47;143739;577;46030;-85
2021/05/11 05:47:52;;;;;;;11.52;3.20;;;;;;;19.30;46.27;101364.78;143739;582;47008;-84
2021/05/11 05:50:26;;;;;;;9.95;3.80;;;;;;;19.38;46.73;101363.47;143738;587;46008;-85
2021/05/11 05:53:09;;;;;;;;;;;;;;;19.47;46.67;101355.91;143746;978;47008;-86
2021/05/11 05:55:36;;;;;;;10.00;2.97;;;;;;;19.65;45.89;101354.84;143748;575;46582;-80
2021/05/11 05:58:03;;;;;;;8.48;2.70;;;;;;;19.66;45.69;101348.59;143741;587;46010;-75
2021/05/11 06:00:30;;;;;;;8.90;2.60;;;;;;;19.65;46.18;101352.19;143740;596;46010;-79
2021/05/11 06:03:05;;;;;;;9.38;3.15;;;;;;;19.64;46.44;101353.13;143742;582;46018;-78
2021/05/11 06:05:33;;;;;;;7.32;2.50;;;;;;;19.43;45.67;101361.38;143736;598;46016;-77
2021/05/11 06:08:00;;;;;;;6.18;2.50;;;;;;;19.48;46.60;101353.16;143743;637;46025;-76
2021/05/11 06:10:30;;;;;;;4.15;2.30;;;;;;;19.48;46.33;101353.16;143740;601;46018;-77
2021/05/11 06:13:05;;;;;;;5.80;2.20;;;;;;;19.39;45.82;101357.16;143741;569;46010;-79
2021/05/11 06:18:17;;;;;;;5.85;2.17;;;;;;;19.11;46.17;101358.69;143742;573;46010;-75
2021/05/11 06:20:44;;;;;;;5.35;1.95;;;;;;;19.07;45.61;101354.47;143742;618;46010;-76
2021/05/11 06:23:12;;;;;;;4.60;1.87;;;;;;;19.07;44.19;101348.28;143741;598;46020;-78
2021/05/11 06:25:44;;;;;;;8.35;1.83;;;;;;;19.17;45.40;101354.81;143739;563;46018;-78
2021/05/11 06:28:12;;;;;;;3.20;1.60;;;;;;;19.37;45.20;101359.06;143738;765;46020;-77
2021/05/11 06:30:40;;;;;;;7.57;2.00;;;;;;;19.42;44.26;101354.34;143741;574;46018;-74
2021/05/11 06:33:08;;;;;;;5.60;1.90;;;;;;;19.52;43.89;101353.81;143742;600;46010;-80
2021/05/11 06:35:35;;;;;;;5.85;1.90;;;;;;;19.58;43.42;101345.50;143739;572;46017;-73
2021/05/11 06:38:02;;;;;;;4.75;1.90;;;;;;;19.79;43.30;101349.63;143744;666;45021;-77
2021/05/11 06:40:31;;;;;;;5.72;1.95;;;;;;;19.67;41.67;101345.00;143739;592;46016;-78
2021/05/11 06:42:59;;;;;;;4.82;1.83;;;;;;;19.87;43.12;101341.22;143739;580;47012;-73
2021/05/11 06:48:25;;;;;;;5.65;2.35;;;;;;;20.01;44.26;101340.44;143736;624;46033;-74
2021/05/11 06:53:55;;;;;;;4.62;1.87;;;;;;;20.07;42.63;101326.75;143740;595;46020;-77
2021/05/11 06:56:25;;;;;;;4.37;1.80;;;;;;;20.04;38.54;101334.03;143738;587;46026;-78
2021/05/11 06:58:52;;;;;;;3.87;1.83;;;;;;;20.01;41.09;101328.91;143736;723;46919;-76
2021/05/11 07:01:21;;;;;;;5.95;2.20;;;;;;;19.90;42.76;101329.53;143740;582;47012;-76
2021/05/11 07:03:48;;;;;;;5.70;2.00;;;;;;;19.89;41.56;101328.66;143739;580;46020;-74
2021/05/11 07:06:17;;;;;;;5.75;2.00;;;;;;;20.02;42.83;101327.97;143734;564;47018;-74
2021/05/11 07:08:57;;;;;;;6.62;2.20;;;;;;;20.11;43.34;101325.63;143740;581;46012;-75
2021/05/11 07:11:30;;;;;;;6.78;2.75;;;;;;;20.35;43.42;101324.25;143736;602;46018;-76
2021/05/11 07:13:57;;;;;;;4.30;1.73;;;;;;;20.41;41.53;101316.75;143738;592;46023;-75
2021/05/11 07:16:24;;;;;;;4.95;1.90;;;;;;;20.58;42.10;101326.38;143736;613;46018;-76
2021/05/11 07:18:51;;;;;;;5.35;1.90;;;;;;;20.74;39.34;101325.50;143738;606;46010;-75
2021/05/11 07:21:18;;;;;;;5.82;1.70;;;;;;;20.76;38.79;101319.13;143739;617;46019;-76
2021/05/11 07:23:45;;;;;;;5.85;1.60;;;;;;;20.90;37.85;101320.94;143739;565;46025;-76
2021/05/11 07:26:27;;;;;;;2.72;1.50;;;;;;;20.88;37.23;101320.16;143735;749;47018;-74
2021/05/11 07:29:11;;;;;;;5.70;1.75;;;;;;;20.84;36.90;101323.12;143737;593;46021;-77
2021/05/11 07:31:39;;;;;;;5.75;1.40;;;;;;;20.90;35.78;101320.94;143732;591;47010;-76
2021/05/11 07:34:07;;;;;;;6.35;1.70;;;;;;;21.09;36.99;101328.66;143741;592;46010;-78
2021/05/11 07:36:35;;;;;;;4.30;1.60;;;;;;;21.20;34.70;101321.78;143737;603;47019;-76
2021/05/11 07:39:02;;;;;;;2.47;1.40;;;;;;;21.30;33.02;101325.59;143739;589;46031;-77
2021/05/11 07:41:29;;;;;;;5.32;1.50;;;;;;;21.17;34.62;101322.81;143738;571;46018;-72
2021/05/11 07:43:58;;;;;;;4.40;1.60;;;;;;;21.05;32.75;101324.47;143738;566;46021;-74
2021/05/11 07:46:41;;;;;;;2.83;1.50;;;;;;;21.02;34.72;101292.59;143737;607;46020;-73
2021/05/11 08:16:44;;;;;;;2.90;1.55;;;;;;;21.58;36.09;101308.69;143741;622;46020;-75
2021/05/11 08:27:31;;;;;;;4.75;1.50;;;;;;;22.44;35.14;101306.56;143738;570;47010;-72
2021/05/11 08:29:58;;;;;;;3.72;1.58;;;;;;;22.10;34.47;101285.66;143739;650;46025;-74
2021/05/11 08:32:25;;;;;;;4.00;1.50;;;;;;;22.40;36.25;101305.91;143738;577;46010;-75
2021/05/11 08:34:52;;;;;;;3.90;1.50;;;;;;;22.41;36.34;101310.31;143736;603;46010;-74
2021/05/11 08:37:20;;;;;;;6.12;1.50;;;;;;;22.15;36.74;101314.75;143743;651;46010;-75
2021/05/11 08:39:49;;;;;;;4.10;1.50;;;;;;;22.37;36.14;101311.50;143737;566;46018;-75
2021/05/11 08:42:16;;;;;;;3.45;1.40;;;;;;;22.33;36.72;101304.59;143739;660;46010;-73
2021/05/11 08:44:43;;;;;;;7.75;1.80;;;;;;;22.46;37.32;101304.66;143739;608;46018;-74
2021/05/11 08:47:12;;;;;;;7.80;1.67;;;;;;;22.54;37.16;101306.78;143740;594;46018;-74
2021/05/11 08:49:48;;;;;;;5.20;1.60;;;;;;;22.78;36.40;101307.75;143737;624;46013;-75
2021/05/11 08:52:49;;;;;;;10.30;2.33;;;;;;;22.38;38.47;101307.84;143740;602;46010;-74
2021/05/11 09:06:39;;;;;;;5.93;1.55;;;;;;;22.78;38.85;101297.03;143739;569;46010;-73
2021/05/11 09:09:45;;;;;;;4.90;1.70;;;;;;;22.30;38.37;101265.53;143741;655;46010;-73
2021/05/11 09:23:34;;;;;;;4.37;1.50;;;;;;;22.70;38.29;101277.16;143739;617;46016;-74
2021/05/11 09:26:08;;;;;;;4.80;1.60;;;;;;;22.58;38.96;101270.84;143738;608;47010;-73
2021/05/11 09:28:48;;;;;;;6.82;1.90;;;;;;;22.61;38.88;101281.34;143737;614;46019;-75
2021/05/11 09:31:51;;;;;;;3.45;1.40;;;;;;;22.42;39.03;101282.59;143740;583;46020;-75
2021/05/11 09:57:49;;;;;;;7.68;1.75;;;;;;;23.14;36.19;101255.25;143738;625;46017;-75
2021/05/11 10:36:32;;;;;;;6.50;1.80;;;;;;;23.15;39.26;101232.88;143739;571;46016;-73
2021/05/11 10:42:07;;;;;;;5.97;1.77;;;;;;;23.81;36.97;101219.06;143738;577;50010;-73
2021/05/11 10:48:37;;;;;;;6.40;1.20;;;;;;;23.68;36.07;101207.56;143735;603;46020;-74
2021/05/11 10:51:21;;;;;;;5.45;1.15;;;;;;;23.55;36.37;101207.63;143738;569;46018;-73
2021/05/11 10:54:02;;;;;;;3.80;1.40;;;;;;;23.43;36.69;101193.31;143741;577;46018;-73
2021/05/11 10:56:50;;;;;;;5.22;1.40;;;;;;;23.30;36.31;101168.41;143739;564;46012;-72
2021/05/11 11:02:38;;;;;;;4.50;1.23;;;;;;;23.24;37.16;101199.19;143739;605;46029;-74
2021/05/11 11:05:07;;;;;;;12.00;1.37;;;;;;;23.24;37.41;101195.66;143740;575;46021;-73
2021/05/11 11:07:37;;;;;;;6.87;1.55;;;;;;;23.43;36.89;101187.97;143736;569;46016;-74
2021/05/11 11:10:07;;;;;;;6.93;1.40;;;;;;;23.42;37.39;101185.41;143740;577;46013;-74
2021/05/11 11:12:43;;;;;;;5.40;1.40;;;;;;;23.49;37.49;101192.00;143739;588;46018;-74
2021/05/11 11:15:15;;;;;;;5.07;1.48;;;;;;;23.36;38.03;101188.53;143740;569;46020;-74
2021/05/11 11:17:44;;;;;;;4.97;1.35;;;;;;;23.65;37.49;101189.87;143738;585;46012;-73
2021/05/11 11:20:13;;;;;;;6.43;1.50;;;;;;;23.66;37.90;101194.28;143739;596;46020;-74
2021/05/11 11:25:28;;;;;;;5.62;1.23;;;;;;;23.30;39.24;101189.84;143739;567;46011;-75
2021/05/11 11:27:55;;;;;;;4.62;1.20;;;;;;;23.32;38.95;101188.75;143737;589;46016;-74
2021/05/11 11:30:22;;;;;;;6.20;1.30;;;;;;;23.23;39.07;101189.44;143739;615;46010;-73
2021/05/11 11:32:49;;;;;;;3.90;1.12;;;;;;;23.47;38.38;101181.41;143736;566;46018;-74
2021/05/11 11:35:18;;;;;;;5.20;1.40;;;;;;;23.32;38.96;101180.72;143738;604;47021;-74
2021/05/11 11:37:46;;;;;;;6.30;1.10;;;;;;;23.23;38.44;101177.88;143736;569;46014;-74
2021/05/11 11:40:16;;;;;;;7.05;1.20;;;;;;;23.32;38.71;101163.81;143741;585;46010;-75
2021/05/11 11:42:47;;;;;;;3.58;1.20;;;;;;;23.40;38.66;101168.56;143737;592;47010;-74
2021/05/11 11:45:30;;;;;;;5.45;1.25;;;;;;;23.80;38.29;101174.44;143740;616;47012;-74
2021/05/11 11:48:04;;;;;;;6.62;1.50;;;;;;;24.15;37.33;101167.34;143735;662;46018;-75
2021/05/11 11:50:37;;;;;;;5.07;1.30;;;;;;;24.07;37.41;101157.22;143738;569;46919;-74
2021/05/11 11:53:18;;;;;;;4.07;1.10;;;;;;;24.25;36.40;101162.97;143738;596;46010;-74
2021/05/11 11:58:32;;;;;;;5.47;1.20;;;;;;;23.98;36.68;101156.09;143736;602;46012;-74
2021/05/11 12:00:59;;;;;;;4.60;1.27;;;;;;;23.78;37.20;101151.41;143738;596;46918;-74
2021/05/11 12:03:27;;;;;;;4.35;1.20;;;;;;;23.71;37.26;101144.81;143740;583;46010;-74
2021/05/11 12:05:59;;;;;;;4.20;1.25;;;;;;;23.42;37.93;101142.53;143738;586;47008;-74
2021/05/11 12:08:31;;;;;;;5.03;1.30;;;;;;;23.60;36.87;101142.97;143738;642;46012;-73
2021/05/11 12:11:06;;;;;;;6.43;1.40;;;;;;;23.18;37.93;101139.88;143740;599;46010;-73
2021/05/11 12:13:43;;;;;;;4.57;1.30;;;;;;;23.08;38.81;101148.53;143740;627;46016;-74
2021/05/11 12:16:27;;;;;;;8.27;1.30;;;;;;;23.06;38.48;101137.09;143739;575;46020;-73
2021/05/11 12:22:17;;;;;;;3.65;1.20;;;;;;;22.92;38.77;101097.97;143748;569;48008;-74
2021/05/11 12:24:44;;;;;;;6.90;1.33;;;;;;;22.98;39.21;101115.41;143740;607;46010;-75
2021/05/11 12:27:22;;;;;;;4.45;1.20;;;;;;;22.91;38.77;101128.37;143739;573;46021;-74
2021/05/11 12:30:10;;;;;;;4.53;1.10;;;;;;;23.16;38.54;101123.91;143737;601;46012;-74
2021/05/11 12:32:37;;;;;;;4.45;1.40;;;;;;;23.20;38.04;101113.84;143740;602;46008;-74
2021/05/11 12:35:16;;;;;;;5.00;1.27;;;;;;;23.38;37.52;101109.75;143741;564;46010;-74
2021/05/11 12:38:04;;;;;;;7.15;1.27;;;;;;;23.78;35.38;101111.19;143741;611;46008;-74
2021/05/11 12:41:01;;;;;;;4.43;1.30;;;;;;;23.77;35.59;101102.31;143738;580;46010;-75
2021/05/11 12:43:49;;;;;;;6.18;1.20;;;;;;;23.58;35.47;101093.97;143740;566;46008;-74
2021/05/11 12:46:29;;;;;;;2.60;1.02;;;;;;;23.79;35.46;101086.94;143740;627;47008;-74
2021/05/11 12:49:03;;;;;;;5.47;1.50;;;;;;;23.28;35.87;101092.69;143741;570;46020;-73
2021/05/11 12:51:39;;;;;;;6.20;1.17;;;;;;;23.36;36.13;101081.37;143736;587;46016;-74
2021/05/11 12:54:39;;;;;;;7.93;1.60;;;;;;;23.30;36.39;101088.88;143737;638;46918;-74
2021/05/11 12:57:18;;;;;;;7.90;1.27;;;;;;;23.23;36.86;101092.16;143741;627;46016;-74
2021/05/11 13:00:05;;;;;;;6.57;1.45;;;;;;;23.22;36.94;101090.44;143741;641;47016;-73
2021/05/11 13:03:09;;;;;;;4.57;1.27;;;;;;;23.21;37.01;101081.56;143738;587;46010;-73
2021/05/11 13:20:05;;;;;;;6.05;1.37;;;;;;;22.46;41.08;101082.62;143737;600;46010;-73
2021/05/11 13:23:04;;;;;;;8.38;1.33;;;;;;;22.53;41.88;101075.84;143741;569;47006;-73
2021/05/11 13:25:41;;;;;;;2.97;1.30;;;;;;;22.48;41.26;101067.28;143740;586;46018;-73
2021/05/11 13:28:20;;;;;;;6.03;1.45;;;;;;;22.73;40.92;101058.34;143738;599;47008;-73
2021/05/11 13:30:58;;;;;;;2.75;1.48;;;;;;;22.55;42.04;101057.84;143738;598;46018;-76
2021/05/11 13:33:34;;;;;;;4.62;1.33;;;;;;;22.55;40.48;101067.69;143738;621;47010;-72
2021/05/11 13:36:01;;;;;;;7.28;1.83;;;;;;;22.72;39.49;101053.06;143738;583;47010;-73
2021/05/11 13:38:28;;;;;;;4.03;1.30;;;;;;;22.89;39.20;101049.16;143740;574;46008;-73
2021/05/11 13:40:56;;;;;;;5.97;1.48;;;;;;;22.96;41.74;101051.25;143738;645;46019;-74
2021/05/11 13:43:23;;;;;;;5.18;1.30;;;;;;;23.04;39.72;101044.47;143741;598;47006;-74
2021/05/11 13:45:50;;;;;;;2.28;1.50;;;;;;;23.00;39.82;101046.50;143737;582;47020;-73
2021/05/11 13:48:33;;;;;;;4.12;1.20;;;;;;;23.06;39.16;101043.37;143740;569;46021;-73
2021/05/11 13:51:18;;;;;;;3.58;1.75;;;;;;;23.30;37.77;101045.19;143736;603;47008;-73
2021/05/11 13:53:48;;;;;;;5.40;1.42;;;;;;;23.20;36.90;101046.87;143737;620;47008;-75
2021/05/11 14:02:00;;;;;;;4.05;1.35;;;;;;;23.04;36.13;101023.03;143742;588;46008;-74
2021/05/11 14:04:27;;;;;;;3.87;1.15;;;;;;;23.14;35.59;101022.25;143742;563;46008;-72
2021/05/11 14:06:54;;;;;;;2.50;1.20;;;;;;;23.22;36.47;101013.63;143735;628;47010;-74
2021/05/11 14:09:21;;;;;;;2.55;1.02;;;;;;;23.18;37.01;101016.66;143740;576;46008;-74
2021/05/11 14:11:48;;;;;;;5.43;1.40;;;;;;;23.37;36.42;101016.09;143739;576;46018;-74
2021/05/11 14:14:16;;;;;;;6.10;1.48;;;;;;;23.36;37.03;101017.06;143740;576;46010;-74
2021/05/11 14:16:45;;;;;;;4.10;1.30;;;;;;;23.36;36.55;101017.06;143736;570;46020;-74
2021/05/11 14:19:13;;;;;;;3.62;1.40;;;;;;;23.07;36.00;101012.09;143738;564;47008;-72
2021/05/11 14:21:41;;;;;;;4.12;1.23;;;;;;;23.51;36.67;101002.50;143737;573;46018;-74
2021/05/11 14:24:09;;;;;;;5.05;1.45;;;;;;;23.42;36.96;101006.72;143743;569;46010;-73
2021/05/11 14:26:38;;;;;;;4.82;1.30;;;;;;;23.35;37.70;101002.84;143741;597;46010;-74
2021/05/11 14:29:05;;;;;;;4.95;1.33;;;;;;;23.65;36.03;101001.41;143741;571;46020;-73
2021/05/11 14:31:33;;;;;;;3.45;1.35;;;;;;;23.51;36.78;101001.62;143740;619;46008;-75
2021/05/11 14:34:01;;;;;;;5.20;1.23;;;;;;;23.03;36.95;101002.59;143742;578;46008;-73
2021/05/11 14:36:28;;;;;;;3.85;1.20;;;;;;;23.20;36.41;100994.16;143737;588;46015;-73
2021/05/11 14:38:55;;;;;;;6.68;1.40;;;;;;;23.28;35.48;101001.59;143743;578;46008;-76
2021/05/11 14:41:23;;;;;;;3.90;1.10;;;;;;;23.20;35.87;100994.16;143741;609;46019;-75
2021/05/11 14:43:50;;;;;;;8.27;1.30;;;;;;;23.03;36.93;100982.00;143743;630;46026;-74
2021/05/11 14:46:17;;;;;;;2.15;0.90;;;;;;;23.26;35.56;100992.81;143738;608;47018;-74
2021/05/11 14:48:45;;;;;;;3.83;1.30;;;;;;;23.18;35.60;100990.72;143741;595;46020;-75
2021/05/11 14:51:12;;;;;;;8.13;1.40;;;;;;;23.05;36.50;100998.81;143740;584;46008;-73
2021/05/11 14:53:40;;;;;;;7.87;1.40;;;;;;;22.92;36.51;100995.38;143743;603;46008;-74
2021/05/11 14:56:12;;;;;;;7.40;1.20;;;;;;;22.96;36.85;100994.16;143737;585;47019;-74
2021/05/11 14:58:43;;;;;;;5.85;1.75;;;;;;;23.15;35.75;100990.97;143740;670;46008;-74
2021/05/11 15:01:10;;;;;;;4.50;1.40;;;;;;;23.11;35.86;100984.97;143739;592;46024;-73
2021/05/11 15:03:37;;;;;;;2.53;1.33;;;;;;;22.95;35.57;100981.75;143743;576;46018;-73
2021/05/11 15:06:05;;;;;;;5.95;1.40;;;;;;;22.99;35.87;100976.06;143739;618;46906;-75
2021/05/11 15:08:32;;;;;;;6.18;1.35;;;;;;;22.76;37.15;100975.13;143738;597;46020;-73
2021/05/11 15:10:59;;;;;;;4.65;1.52;;;;;;;22.87;37.51;100966.28;143738;589;46026;-74
2021/05/11 15:13:26;;;;;;;2.90;1.35;;;;;;;22.66;37.27;100968.75;143743;569;47006;-73
2021/05/11 15:15:55;;;;;;;4.87;1.30;;;;;;;22.48;37.72;100968.31;143739;572;46016;-73